sensor_id;sensor_type;location;lat;lon;timestamp;P1;durP1;ratioP1;P2;durP2;ratioP2
66402;SDS011;53212;52.112;5.144;2023-05-23T00:00:36;14.30;;;8.60;;
66402;SDS011;53212;52.112;5.144;2023-05-23T00:03:02;18.80;;;9.80;;
66402;SDS011;53212;52.112;5.144;2023-05-23T00:05:28;15.30;;;9.50;;
66402;SDS011;53212;52.112;5.144;2023-05-23T00:07:54;15.30;;;9.60;;
66402;SDS011;53212;52.112;5.144;2023-05-23T00:10:20;19.10;;;9.80;;
66402;SDS011;53212;52.112;5.144;2023-05-23T00:12:46;17.60;;;10.00;;
66402;SDS011;53212;52.112;5.144;2023-05-23T00:15:12;16.00;;;9.30;;
66402;SDS011;53212;52.112;5.144;2023-05-23T00:17:38;17.00;;;9.20;;
66402;SDS011;53212;52.112;5.144;2023-05-23T00:20:05;15.80;;;8.70;;
66402;SDS011;53212;52.112;5.144;2023-05-23T00:22:35;14.50;;;9.30;;
66402;SDS011;53212;52.112;5.144;2023-05-23T00:25:04;14.90;;;8.80;;
66402;SDS011;53212;52.112;5.144;2023-05-23T00:27:31;15.20;;;8.20;;
66402;SDS011;53212;52.112;5.144;2023-05-23T00:29:56;14.90;;;9.30;;
66402;SDS011;53212;52.112;5.144;2023-05-23T00:32:24;13.40;;;8.70;;
66402;SDS011;53212;52.112;5.144;2023-05-23T00:34:50;15.60;;;9.80;;
66402;SDS011;53212;52.112;5.144;2023-05-23T00:37:18;13.60;;;9.50;;
66402;SDS011;53212;52.112;5.144;2023-05-23T00:39:44;14.70;;;9.20;;
66402;SDS011;53212;52.112;5.144;2023-05-23T00:42:10;16.70;;;9.80;;
66402;SDS011;53212;52.112;5.144;2023-05-23T00:44:35;14.40;;;9.50;;
66402;SDS011;53212;52.112;5.144;2023-05-23T00:47:01;16.10;;;9.90;;
66402;SDS011;53212;52.112;5.144;2023-05-23T00:49:26;15.00;;;10.80;;
66402;SDS011;53212;52.112;5.144;2023-05-23T00:51:52;19.10;;;11.50;;
66402;SDS011;53212;52.112;5.144;2023-05-23T00:54:22;16.50;;;11.00;;
66402;SDS011;53212;52.112;5.144;2023-05-23T00:56:49;19.70;;;11.60;;
66402;SDS011;53212;52.112;5.144;2023-05-23T00:59:15;16.20;;;10.40;;
66402;SDS011;53212;52.112;5.144;2023-05-23T01:01:41;15.10;;;9.20;;
66402;SDS011;53212;52.112;5.144;2023-05-23T01:04:10;15.10;;;8.70;;
66402;SDS011;53212;52.112;5.144;2023-05-23T01:06:37;14.30;;;7.70;;
66402;SDS011;53212;52.112;5.144;2023-05-23T01:09:03;9.80;;;6.80;;
66402;SDS011;53212;52.112;5.144;2023-05-23T01:11:41;10.10;;;6.20;;
66402;SDS011;53212;52.112;5.144;2023-05-23T01:14:16;9.90;;;5.90;;
66402;SDS011;53212;52.112;5.144;2023-05-23T01:16:56;5.90;;;5.10;;
66402;SDS011;53212;52.112;5.144;2023-05-23T01:25:19;7.00;;;5.30;;
66402;SDS011;53212;52.112;5.144;2023-05-23T01:27:59;8.80;;;5.30;;
66402;SDS011;53212;52.112;5.144;2023-05-23T01:30:26;8.60;;;5.20;;
66402;SDS011;53212;52.112;5.144;2023-05-23T01:32:56;6.80;;;5.20;;
66402;SDS011;53212;52.112;5.144;2023-05-23T01:35:25;5.70;;;4.60;;
66402;SDS011;53212;52.112;5.144;2023-05-23T01:37:55;7.40;;;4.70;;
66402;SDS011;53212;52.112;5.144;2023-05-23T01:40:22;7.00;;;5.50;;
66402;SDS011;53212;52.112;5.144;2023-05-23T01:42:48;9.80;;;5.60;;
66402;SDS011;53212;52.112;5.144;2023-05-23T01:45:14;6.00;;;5.00;;
66402;SDS011;53212;52.112;5.144;2023-05-23T01:47:41;7.10;;;5.10;;
66402;SDS011;53212;52.112;5.144;2023-05-23T01:50:08;7.70;;;4.80;;
66402;SDS011;53212;52.112;5.144;2023-05-23T01:52:35;8.30;;;5.20;;
66402;SDS011;53212;52.112;5.144;2023-05-23T01:55:01;9.30;;;6.10;;
66402;SDS011;53212;52.112;5.144;2023-05-23T01:57:34;13.30;;;6.00;;
66402;SDS011;53212;52.112;5.144;2023-05-23T02:00:01;9.30;;;5.70;;
66402;SDS011;53212;52.112;5.144;2023-05-23T02:02:27;8.60;;;5.90;;
66402;SDS011;53212;52.112;5.144;2023-05-23T02:04:52;10.60;;;6.50;;
66402;SDS011;53212;52.112;5.144;2023-05-23T02:07:18;14.70;;;7.00;;
66402;SDS011;53212;52.112;5.144;2023-05-23T02:09:47;13.30;;;7.00;;
66402;SDS011;53212;52.112;5.144;2023-05-23T02:12:13;13.20;;;6.70;;
66402;SDS011;53212;52.112;5.144;2023-05-23T02:14:38;12.70;;;7.30;;
66402;SDS011;53212;52.112;5.144;2023-05-23T02:17:06;11.80;;;6.60;;
66402;SDS011;53212;52.112;5.144;2023-05-23T02:19:36;15.10;;;7.10;;
66402;SDS011;53212;52.112;5.144;2023-05-23T02:22:02;19.00;;;7.10;;
66402;SDS011;53212;52.112;5.144;2023-05-23T02:24:27;13.80;;;7.40;;
66402;SDS011;53212;52.112;5.144;2023-05-23T02:26:53;10.50;;;6.40;;
66402;SDS011;53212;52.112;5.144;2023-05-23T02:29:19;12.50;;;6.50;;
66402;SDS011;53212;52.112;5.144;2023-05-23T02:31:44;14.00;;;7.40;;
66402;SDS011;53212;52.112;5.144;2023-05-23T02:34:10;11.90;;;7.20;;
66402;SDS011;53212;52.112;5.144;2023-05-23T02:36:35;9.80;;;6.00;;
66402;SDS011;53212;52.112;5.144;2023-05-23T02:39:04;12.00;;;6.70;;
66402;SDS011;53212;52.112;5.144;2023-05-23T02:41:30;11.50;;;6.50;;
66402;SDS011;53212;52.112;5.144;2023-05-23T02:43:57;10.30;;;6.60;;
66402;SDS011;53212;52.112;5.144;2023-05-23T02:46:23;12.80;;;7.10;;
66402;SDS011;53212;52.112;5.144;2023-05-23T02:48:48;14.20;;;7.60;;
66402;SDS011;53212;52.112;5.144;2023-05-23T02:51:14;15.40;;;7.50;;
66402;SDS011;53212;52.112;5.144;2023-05-23T02:53:40;15.00;;;7.10;;
66402;SDS011;53212;52.112;5.144;2023-05-23T02:56:06;13.90;;;7.20;;
66402;SDS011;53212;52.112;5.144;2023-05-23T02:58:33;15.80;;;8.20;;
66402;SDS011;53212;52.112;5.144;2023-05-23T03:01:02;16.20;;;8.20;;
66402;SDS011;53212;52.112;5.144;2023-05-23T03:03:28;15.50;;;7.90;;
66402;SDS011;53212;52.112;5.144;2023-05-23T03:05:58;14.00;;;7.70;;
66402;SDS011;53212;52.112;5.144;2023-05-23T03:08:24;15.70;;;7.80;;
66402;SDS011;53212;52.112;5.144;2023-05-23T03:10:50;17.70;;;9.40;;
66402;SDS011;53212;52.112;5.144;2023-05-23T03:13:16;18.80;;;8.80;;
66402;SDS011;53212;52.112;5.144;2023-05-23T03:15:42;19.20;;;9.00;;
66402;SDS011;53212;52.112;5.144;2023-05-23T03:18:08;17.30;;;8.40;;
66402;SDS011;53212;52.112;5.144;2023-05-23T03:20:34;16.20;;;7.40;;
66402;SDS011;53212;52.112;5.144;2023-05-23T03:22:59;16.50;;;7.40;;
66402;SDS011;53212;52.112;5.144;2023-05-23T03:25:25;21.20;;;8.10;;
66402;SDS011;53212;52.112;5.144;2023-05-23T03:27:50;18.00;;;8.00;;
66402;SDS011;53212;52.112;5.144;2023-05-23T03:30:16;21.20;;;9.00;;
66402;SDS011;53212;52.112;5.144;2023-05-23T03:32:42;20.30;;;9.50;;
66402;SDS011;53212;52.112;5.144;2023-05-23T03:35:08;18.70;;;8.30;;
66402;SDS011;53212;52.112;5.144;2023-05-23T03:37:33;21.20;;;8.80;;
66402;SDS011;53212;52.112;5.144;2023-05-23T03:39:59;20.20;;;8.60;;
66402;SDS011;53212;52.112;5.144;2023-05-23T03:42:24;17.60;;;7.70;;
66402;SDS011;53212;52.112;5.144;2023-05-23T03:44:50;15.90;;;7.40;;
66402;SDS011;53212;52.112;5.144;2023-05-23T03:47:15;16.10;;;7.50;;
66402;SDS011;53212;52.112;5.144;2023-05-23T03:49:41;18.00;;;8.30;;
66402;SDS011;53212;52.112;5.144;2023-05-23T03:52:06;17.70;;;7.30;;
66402;SDS011;53212;52.112;5.144;2023-05-23T03:54:32;16.70;;;7.30;;
66402;SDS011;53212;52.112;5.144;2023-05-23T03:56:57;21.20;;;7.40;;
66402;SDS011;53212;52.112;5.144;2023-05-23T03:59:22;18.70;;;7.40;;
66402;SDS011;53212;52.112;5.144;2023-05-23T04:01:48;16.90;;;6.60;;
66402;SDS011;53212;52.112;5.144;2023-05-23T04:04:13;16.80;;;6.40;;
66402;SDS011;53212;52.112;5.144;2023-05-23T04:06:41;15.80;;;7.30;;
66402;SDS011;53212;52.112;5.144;2023-05-23T04:09:07;12.80;;;5.90;;
66402;SDS011;53212;52.112;5.144;2023-05-23T04:11:33;12.30;;;5.80;;
66402;SDS011;53212;52.112;5.144;2023-05-23T04:13:58;14.70;;;5.60;;
66402;SDS011;53212;52.112;5.144;2023-05-23T04:16:24;14.60;;;5.90;;
66402;SDS011;53212;52.112;5.144;2023-05-23T04:18:49;13.80;;;4.90;;
66402;SDS011;53212;52.112;5.144;2023-05-23T04:21:15;11.40;;;5.20;;
66402;SDS011;53212;52.112;5.144;2023-05-23T04:23:41;11.60;;;4.60;;
66402;SDS011;53212;52.112;5.144;2023-05-23T04:26:06;11.20;;;4.30;;
66402;SDS011;53212;52.112;5.144;2023-05-23T04:28:34;11.90;;;4.60;;
66402;SDS011;53212;52.112;5.144;2023-05-23T04:30:59;9.20;;;4.20;;
66402;SDS011;53212;52.112;5.144;2023-05-23T04:33:26;12.60;;;4.40;;
66402;SDS011;53212;52.112;5.144;2023-05-23T04:35:52;7.60;;;4.20;;
66402;SDS011;53212;52.112;5.144;2023-05-23T04:38:17;8.90;;;3.80;;
66402;SDS011;53212;52.112;5.144;2023-05-23T04:40:43;9.60;;;4.10;;
66402;SDS011;53212;52.112;5.144;2023-05-23T04:43:08;7.70;;;4.00;;
66402;SDS011;53212;52.112;5.144;2023-05-23T04:45:34;11.60;;;4.40;;
66402;SDS011;53212;52.112;5.144;2023-05-23T04:48:01;10.00;;;4.30;;
66402;SDS011;53212;52.112;5.144;2023-05-23T04:50:27;11.10;;;4.80;;
66402;SDS011;53212;52.112;5.144;2023-05-23T04:52:57;12.00;;;4.90;;
66402;SDS011;53212;52.112;5.144;2023-05-23T04:55:22;12.50;;;4.50;;
66402;SDS011;53212;52.112;5.144;2023-05-23T04:57:47;8.90;;;3.80;;
66402;SDS011;53212;52.112;5.144;2023-05-23T05:00:13;10.40;;;4.10;;
66402;SDS011;53212;52.112;5.144;2023-05-23T05:02:39;9.00;;;4.80;;
66402;SDS011;53212;52.112;5.144;2023-05-23T05:05:06;11.40;;;4.40;;
66402;SDS011;53212;52.112;5.144;2023-05-23T05:07:31;10.90;;;4.20;;
66402;SDS011;53212;52.112;5.144;2023-05-23T05:10:00;14.10;;;5.00;;
66402;SDS011;53212;52.112;5.144;2023-05-23T05:12:25;13.00;;;5.10;;
66402;SDS011;53212;52.112;5.144;2023-05-23T05:14:51;10.30;;;5.10;;
66402;SDS011;53212;52.112;5.144;2023-05-23T05:17:16;10.60;;;4.50;;
66402;SDS011;53212;52.112;5.144;2023-05-23T05:19:44;10.20;;;4.40;;
66402;SDS011;53212;52.112;5.144;2023-05-23T05:22:10;14.50;;;5.20;;
66402;SDS011;53212;52.112;5.144;2023-05-23T05:24:35;13.40;;;5.20;;
66402;SDS011;53212;52.112;5.144;2023-05-23T05:27:01;11.80;;;4.80;;
66402;SDS011;53212;52.112;5.144;2023-05-23T05:29:26;14.70;;;5.50;;
66402;SDS011;53212;52.112;5.144;2023-05-23T05:31:52;11.40;;;4.40;;
66402;SDS011;53212;52.112;5.144;2023-05-23T05:34:18;12.50;;;5.60;;
66402;SDS011;53212;52.112;5.144;2023-05-23T05:36:43;12.00;;;4.80;;
66402;SDS011;53212;52.112;5.144;2023-05-23T05:39:13;11.20;;;5.00;;
66402;SDS011;53212;52.112;5.144;2023-05-23T05:41:39;11.40;;;5.30;;
66402;SDS011;53212;52.112;5.144;2023-05-23T05:44:05;8.50;;;4.90;;
66402;SDS011;53212;52.112;5.144;2023-05-23T05:46:31;13.90;;;5.20;;
66402;SDS011;53212;52.112;5.144;2023-05-23T05:48:57;10.70;;;5.70;;
66402;SDS011;53212;52.112;5.144;2023-05-23T05:51:22;11.90;;;5.60;;
66402;SDS011;53212;52.112;5.144;2023-05-23T05:53:48;9.90;;;5.00;;
66402;SDS011;53212;52.112;5.144;2023-05-23T05:56:13;16.00;;;6.00;;
66402;SDS011;53212;52.112;5.144;2023-05-23T05:58:39;15.50;;;5.70;;
66402;SDS011;53212;52.112;5.144;2023-05-23T06:01:04;16.40;;;6.70;;
66402;SDS011;53212;52.112;5.144;2023-05-23T06:03:31;16.40;;;6.50;;
66402;SDS011;53212;52.112;5.144;2023-05-23T06:05:57;13.40;;;6.10;;
66402;SDS011;53212;52.112;5.144;2023-05-23T06:08:23;17.50;;;6.40;;
66402;SDS011;53212;52.112;5.144;2023-05-23T06:10:49;11.20;;;5.90;;
66402;SDS011;53212;52.112;5.144;2023-05-23T06:13:14;15.20;;;7.10;;
66402;SDS011;53212;52.112;5.144;2023-05-23T06:15:40;11.90;;;6.00;;
66402;SDS011;53212;52.112;5.144;2023-05-23T06:18:05;15.60;;;5.90;;
66402;SDS011;53212;52.112;5.144;2023-05-23T06:20:31;10.10;;;5.30;;
66402;SDS011;53212;52.112;5.144;2023-05-23T06:22:56;11.30;;;5.80;;
66402;SDS011;53212;52.112;5.144;2023-05-23T06:25:22;11.90;;;5.20;;
66402;SDS011;53212;52.112;5.144;2023-05-23T06:27:47;12.30;;;5.60;;
66402;SDS011;53212;52.112;5.144;2023-05-23T06:30:14;10.10;;;5.10;;
66402;SDS011;53212;52.112;5.144;2023-05-23T06:32:39;16.10;;;6.20;;
66402;SDS011;53212;52.112;5.144;2023-05-23T06:35:05;12.70;;;5.30;;
66402;SDS011;53212;52.112;5.144;2023-05-23T06:37:31;11.30;;;6.10;;
66402;SDS011;53212;52.112;5.144;2023-05-23T06:39:56;14.60;;;6.20;;
66402;SDS011;53212;52.112;5.144;2023-05-23T06:42:22;10.00;;;5.70;;
66402;SDS011;53212;52.112;5.144;2023-05-23T06:44:47;10.00;;;5.10;;
66402;SDS011;53212;52.112;5.144;2023-05-23T06:47:13;12.60;;;5.10;;
66402;SDS011;53212;52.112;5.144;2023-05-23T06:49:38;10.40;;;5.70;;
66402;SDS011;53212;52.112;5.144;2023-05-23T06:52:04;9.30;;;4.50;;
66402;SDS011;53212;52.112;5.144;2023-05-23T06:54:29;13.70;;;5.10;;
66402;SDS011;53212;52.112;5.144;2023-05-23T06:56:55;14.40;;;6.10;;
66402;SDS011;53212;52.112;5.144;2023-05-23T06:59:20;10.50;;;5.20;;
66402;SDS011;53212;52.112;5.144;2023-05-23T07:01:45;9.10;;;4.60;;
66402;SDS011;53212;52.112;5.144;2023-05-23T07:04:11;11.90;;;4.40;;
66402;SDS011;53212;52.112;5.144;2023-05-23T07:06:36;18.60;;;4.90;;
66402;SDS011;53212;52.112;5.144;2023-05-23T07:09:03;10.60;;;3.10;;
66402;SDS011;53212;52.112;5.144;2023-05-23T07:11:29;9.30;;;2.70;;
66402;SDS011;53212;52.112;5.144;2023-05-23T07:13:55;9.70;;;3.40;;
66402;SDS011;53212;52.112;5.144;2023-05-23T07:16:20;9.30;;;3.10;;
66402;SDS011;53212;52.112;5.144;2023-05-23T07:18:46;9.60;;;3.30;;
66402;SDS011;53212;52.112;5.144;2023-05-23T07:21:11;14.20;;;3.70;;
66402;SDS011;53212;52.112;5.144;2023-05-23T07:23:37;11.90;;;3.10;;
66402;SDS011;53212;52.112;5.144;2023-05-23T07:26:04;9.70;;;3.20;;
66402;SDS011;53212;52.112;5.144;2023-05-23T07:28:30;16.70;;;4.30;;
66402;SDS011;53212;52.112;5.144;2023-05-23T07:30:55;13.00;;;3.30;;
66402;SDS011;53212;52.112;5.144;2023-05-23T07:33:22;10.60;;;3.30;;
66402;SDS011;53212;52.112;5.144;2023-05-23T07:35:47;19.20;;;3.60;;
66402;SDS011;53212;52.112;5.144;2023-05-23T07:38:13;13.50;;;3.40;;
66402;SDS011;53212;52.112;5.144;2023-05-23T07:40:38;11.40;;;3.10;;
66402;SDS011;53212;52.112;5.144;2023-05-23T07:43:04;17.20;;;4.00;;
66402;SDS011;53212;52.112;5.144;2023-05-23T07:45:29;10.10;;;3.10;;
66402;SDS011;53212;52.112;5.144;2023-05-23T07:47:55;23.00;;;4.20;;
66402;SDS011;53212;52.112;5.144;2023-05-23T07:50:20;11.90;;;3.50;;
66402;SDS011;53212;52.112;5.144;2023-05-23T07:52:46;14.50;;;3.80;;
66402;SDS011;53212;52.112;5.144;2023-05-23T07:55:11;9.30;;;2.80;;
66402;SDS011;53212;52.112;5.144;2023-05-23T07:57:37;13.40;;;3.50;;
66402;SDS011;53212;52.112;5.144;2023-05-23T08:00:03;13.70;;;3.50;;
66402;SDS011;53212;52.112;5.144;2023-05-23T08:02:29;10.40;;;2.80;;
66402;SDS011;53212;52.112;5.144;2023-05-23T08:04:55;7.80;;;3.00;;
66402;SDS011;53212;52.112;5.144;2023-05-23T08:07:21;10.40;;;2.60;;
66402;SDS011;53212;52.112;5.144;2023-05-23T08:09:47;8.30;;;2.90;;
66402;SDS011;53212;52.112;5.144;2023-05-23T08:12:12;12.50;;;3.30;;
66402;SDS011;53212;52.112;5.144;2023-05-23T08:14:38;10.70;;;3.10;;
66402;SDS011;53212;52.112;5.144;2023-05-23T08:17:04;11.80;;;2.90;;
66402;SDS011;53212;52.112;5.144;2023-05-23T08:19:29;10.80;;;3.40;;
66402;SDS011;53212;52.112;5.144;2023-05-23T08:21:55;12.70;;;3.40;;
66402;SDS011;53212;52.112;5.144;2023-05-23T08:24:20;13.00;;;3.30;;
66402;SDS011;53212;52.112;5.144;2023-05-23T08:26:46;13.30;;;3.30;;
66402;SDS011;53212;52.112;5.144;2023-05-23T08:29:12;10.30;;;3.00;;
66402;SDS011;53212;52.112;5.144;2023-05-23T08:31:38;11.20;;;3.30;;
66402;SDS011;53212;52.112;5.144;2023-05-23T08:34:05;11.20;;;3.30;;
66402;SDS011;53212;52.112;5.144;2023-05-23T08:36:32;13.30;;;3.90;;
66402;SDS011;53212;52.112;5.144;2023-05-23T08:39:00;9.90;;;3.00;;
66402;SDS011;53212;52.112;5.144;2023-05-23T08:41:26;13.20;;;3.30;;
66402;SDS011;53212;52.112;5.144;2023-05-23T08:43:53;9.90;;;3.20;;
66402;SDS011;53212;52.112;5.144;2023-05-23T08:46:19;10.20;;;3.60;;
66402;SDS011;53212;52.112;5.144;2023-05-23T08:48:50;10.60;;;3.50;;
66402;SDS011;53212;52.112;5.144;2023-05-23T08:51:22;10.60;;;3.00;;
66402;SDS011;53212;52.112;5.144;2023-05-23T08:53:50;11.00;;;2.90;;
66402;SDS011;53212;52.112;5.144;2023-05-23T08:56:18;8.90;;;3.00;;
66402;SDS011;53212;52.112;5.144;2023-05-23T08:58:44;13.40;;;3.60;;
66402;SDS011;53212;52.112;5.144;2023-05-23T09:01:12;12.20;;;2.80;;
66402;SDS011;53212;52.112;5.144;2023-05-23T09:03:38;8.80;;;2.90;;
66402;SDS011;53212;52.112;5.144;2023-05-23T09:06:07;10.30;;;2.90;;
66402;SDS011;53212;52.112;5.144;2023-05-23T09:08:36;12.10;;;3.30;;
66402;SDS011;53212;52.112;5.144;2023-05-23T09:11:02;10.30;;;3.00;;
66402;SDS011;53212;52.112;5.144;2023-05-23T09:13:31;10.70;;;3.40;;
66402;SDS011;53212;52.112;5.144;2023-05-23T09:16:08;16.00;;;3.60;;
66402;SDS011;53212;52.112;5.144;2023-05-23T09:18:39;10.80;;;3.20;;
66402;SDS011;53212;52.112;5.144;2023-05-23T09:21:07;8.70;;;3.00;;
66402;SDS011;53212;52.112;5.144;2023-05-23T09:23:36;11.20;;;3.10;;
66402;SDS011;53212;52.112;5.144;2023-05-23T09:26:04;8.90;;;3.10;;
66402;SDS011;53212;52.112;5.144;2023-05-23T09:28:35;11.90;;;3.30;;
66402;SDS011;53212;52.112;5.144;2023-05-23T09:31:06;11.00;;;3.20;;
66402;SDS011;53212;52.112;5.144;2023-05-23T09:33:47;10.50;;;2.70;;
66402;SDS011;53212;52.112;5.144;2023-05-23T09:38:44;11.80;;;3.50;;
66402;SDS011;53212;52.112;5.144;2023-05-23T09:41:11;10.80;;;3.60;;
66402;SDS011;53212;52.112;5.144;2023-05-23T09:43:57;11.70;;;3.50;;
66402;SDS011;53212;52.112;5.144;2023-05-23T09:46:27;8.40;;;3.20;;
66402;SDS011;53212;52.112;5.144;2023-05-23T09:48:54;9.30;;;2.80;;
66402;SDS011;53212;52.112;5.144;2023-05-23T09:51:21;7.00;;;2.50;;
66402;SDS011;53212;52.112;5.144;2023-05-23T09:53:48;11.30;;;3.00;;
66402;SDS011;53212;52.112;5.144;2023-05-23T09:56:18;8.70;;;2.90;;
66402;SDS011;53212;52.112;5.144;2023-05-23T09:58:48;13.10;;;3.30;;
66402;SDS011;53212;52.112;5.144;2023-05-23T10:01:15;12.60;;;3.50;;
66402;SDS011;53212;52.112;5.144;2023-05-23T10:03:48;9.40;;;3.40;;
66402;SDS011;53212;52.112;5.144;2023-05-23T10:09:05;11.90;;;2.80;;
66402;SDS011;53212;52.112;5.144;2023-05-23T10:14:06;7.00;;;2.80;;
66402;SDS011;53212;52.112;5.144;2023-05-23T10:19:59;12.60;;;3.80;;
66402;SDS011;53212;52.112;5.144;2023-05-23T10:22:32;10.50;;;3.40;;
66402;SDS011;53212;52.112;5.144;2023-05-23T10:25:04;9.60;;;2.90;;
66402;SDS011;53212;52.112;5.144;2023-05-23T10:27:31;12.40;;;3.50;;
66402;SDS011;53212;52.112;5.144;2023-05-23T10:29:58;10.20;;;2.80;;
66402;SDS011;53212;52.112;5.144;2023-05-23T10:32:24;12.00;;;3.60;;
66402;SDS011;53212;52.112;5.144;2023-05-23T10:37:34;13.70;;;3.20;;
66402;SDS011;53212;52.112;5.144;2023-05-23T10:42:53;9.20;;;3.00;;
66402;SDS011;53212;52.112;5.144;2023-05-23T10:47:50;8.60;;;2.40;;
66402;SDS011;53212;52.112;5.144;2023-05-23T10:51:00;13.20;;;3.00;;
66402;SDS011;53212;52.112;5.144;2023-05-23T10:53:31;11.60;;;2.90;;
66402;SDS011;53212;52.112;5.144;2023-05-23T10:55:59;6.90;;;2.90;;
66402;SDS011;53212;52.112;5.144;2023-05-23T10:58:24;7.50;;;2.70;;
66402;SDS011;53212;52.112;5.144;2023-05-23T11:00:59;12.50;;;3.40;;
66402;SDS011;53212;52.112;5.144;2023-05-23T11:06:31;13.30;;;3.30;;
66402;SDS011;53212;52.112;5.144;2023-05-23T11:16:57;7.60;;;2.50;;
66402;SDS011;53212;52.112;5.144;2023-05-23T11:20:14;9.10;;;2.50;;
66402;SDS011;53212;52.112;5.144;2023-05-23T11:22:52;9.40;;;2.80;;
66402;SDS011;53212;52.112;5.144;2023-05-23T11:25:44;11.00;;;3.10;;
66402;SDS011;53212;52.112;5.144;2023-05-23T11:28:13;7.60;;;2.70;;
66402;SDS011;53212;52.112;5.144;2023-05-23T11:30:39;9.40;;;2.60;;
66402;SDS011;53212;52.112;5.144;2023-05-23T11:33:12;10.10;;;2.70;;
66402;SDS011;53212;52.112;5.144;2023-05-23T11:35:43;13.90;;;3.10;;
66402;SDS011;53212;52.112;5.144;2023-05-23T11:38:14;11.40;;;3.00;;
66402;SDS011;53212;52.112;5.144;2023-05-23T11:40:42;14.80;;;3.10;;
66402;SDS011;53212;52.112;5.144;2023-05-23T11:43:10;9.30;;;2.90;;
66402;SDS011;53212;52.112;5.144;2023-05-23T11:45:42;12.10;;;3.00;;
66402;SDS011;53212;52.112;5.144;2023-05-23T11:48:11;12.40;;;3.50;;
66402;SDS011;53212;52.112;5.144;2023-05-23T11:53:15;9.20;;;3.20;;
66402;SDS011;53212;52.112;5.144;2023-05-23T11:55:56;9.40;;;2.90;;
66402;SDS011;53212;52.112;5.144;2023-05-23T12:01:02;9.10;;;2.80;;
66402;SDS011;53212;52.112;5.144;2023-05-23T12:03:53;11.40;;;2.60;;
66402;SDS011;53212;52.112;5.144;2023-05-23T12:06:19;6.30;;;2.50;;
66402;SDS011;53212;52.112;5.144;2023-05-23T12:08:46;8.60;;;2.30;;
66402;SDS011;53212;52.112;5.144;2023-05-23T12:11:12;9.30;;;3.00;;
66402;SDS011;53212;52.112;5.144;2023-05-23T12:13:40;9.50;;;2.90;;
66402;SDS011;53212;52.112;5.144;2023-05-23T12:16:06;9.60;;;2.80;;
66402;SDS011;53212;52.112;5.144;2023-05-23T12:18:32;10.60;;;2.90;;
66402;SDS011;53212;52.112;5.144;2023-05-23T12:20:59;8.90;;;3.00;;
66402;SDS011;53212;52.112;5.144;2023-05-23T12:23:27;9.60;;;2.50;;
66402;SDS011;53212;52.112;5.144;2023-05-23T12:25:54;9.50;;;2.70;;
66402;SDS011;53212;52.112;5.144;2023-05-23T12:28:32;6.80;;;2.40;;
66402;SDS011;53212;52.112;5.144;2023-05-23T12:31:15;14.10;;;3.40;;
66402;SDS011;53212;52.112;5.144;2023-05-23T12:33:42;10.90;;;2.70;;
66402;SDS011;53212;52.112;5.144;2023-05-23T12:36:10;9.30;;;2.60;;
66402;SDS011;53212;52.112;5.144;2023-05-23T12:38:36;15.20;;;2.80;;
66402;SDS011;53212;52.112;5.144;2023-05-23T12:41:09;12.30;;;2.90;;
66402;SDS011;53212;52.112;5.144;2023-05-23T12:46:05;9.80;;;2.50;;
66402;SDS011;53212;52.112;5.144;2023-05-23T12:48:32;10.80;;;2.50;;
66402;SDS011;53212;52.112;5.144;2023-05-23T12:50:58;6.90;;;2.40;;
66402;SDS011;53212;52.112;5.144;2023-05-23T12:53:25;6.00;;;2.30;;
66402;SDS011;53212;52.112;5.144;2023-05-23T12:55:52;8.30;;;2.60;;
66402;SDS011;53212;52.112;5.144;2023-05-23T12:58:17;11.30;;;2.90;;
66402;SDS011;53212;52.112;5.144;2023-05-23T13:00:43;6.90;;;2.30;;
66402;SDS011;53212;52.112;5.144;2023-05-23T13:03:08;6.90;;;2.50;;
66402;SDS011;53212;52.112;5.144;2023-05-23T13:05:34;9.70;;;2.90;;
66402;SDS011;53212;52.112;5.144;2023-05-23T13:07:59;7.40;;;2.70;;
66402;SDS011;53212;52.112;5.144;2023-05-23T13:10:25;8.00;;;2.70;;
66402;SDS011;53212;52.112;5.144;2023-05-23T13:12:51;10.60;;;2.80;;
66402;SDS011;53212;52.112;5.144;2023-05-23T13:15:16;10.90;;;2.80;;
66402;SDS011;53212;52.112;5.144;2023-05-23T13:17:42;8.00;;;3.10;;
66402;SDS011;53212;52.112;5.144;2023-05-23T13:20:09;10.20;;;3.20;;
66402;SDS011;53212;52.112;5.144;2023-05-23T13:22:35;8.20;;;2.40;;
66402;SDS011;53212;52.112;5.144;2023-05-23T13:25:01;7.70;;;2.40;;
66402;SDS011;53212;52.112;5.144;2023-05-23T13:27:26;6.80;;;2.60;;
66402;SDS011;53212;52.112;5.144;2023-05-23T13:29:52;7.10;;;2.40;;
66402;SDS011;53212;52.112;5.144;2023-05-23T13:32:17;6.50;;;2.30;;
66402;SDS011;53212;52.112;5.144;2023-05-23T13:34:43;9.70;;;2.80;;
66402;SDS011;53212;52.112;5.144;2023-05-23T13:37:09;7.90;;;2.40;;
66402;SDS011;53212;52.112;5.144;2023-05-23T13:39:34;6.30;;;2.10;;
66402;SDS011;53212;52.112;5.144;2023-05-23T13:42:00;10.00;;;2.70;;
66402;SDS011;53212;52.112;5.144;2023-05-23T13:44:25;9.90;;;2.90;;
66402;SDS011;53212;52.112;5.144;2023-05-23T13:46:51;11.90;;;3.00;;
66402;SDS011;53212;52.112;5.144;2023-05-23T13:49:16;8.20;;;3.00;;
66402;SDS011;53212;52.112;5.144;2023-05-23T13:51:42;13.20;;;3.40;;
66402;SDS011;53212;52.112;5.144;2023-05-23T13:54:08;9.60;;;2.80;;
66402;SDS011;53212;52.112;5.144;2023-05-23T13:56:34;10.30;;;2.90;;
66402;SDS011;53212;52.112;5.144;2023-05-23T13:59:01;9.50;;;3.30;;
66402;SDS011;53212;52.112;5.144;2023-05-23T14:01:26;14.80;;;3.20;;
66402;SDS011;53212;52.112;5.144;2023-05-23T14:03:52;8.80;;;2.70;;
66402;SDS011;53212;52.112;5.144;2023-05-23T14:06:18;8.90;;;2.20;;
66402;SDS011;53212;52.112;5.144;2023-05-23T14:08:44;5.60;;;2.20;;
66402;SDS011;53212;52.112;5.144;2023-05-23T14:11:12;8.70;;;2.20;;
66402;SDS011;53212;52.112;5.144;2023-05-23T14:13:37;9.30;;;2.40;;
66402;SDS011;53212;52.112;5.144;2023-05-23T14:16:03;7.30;;;2.40;;
66402;SDS011;53212;52.112;5.144;2023-05-23T14:18:28;12.10;;;3.00;;
66402;SDS011;53212;52.112;5.144;2023-05-23T14:20:54;9.70;;;2.50;;
66402;SDS011;53212;52.112;5.144;2023-05-23T14:23:19;11.00;;;2.90;;
66402;SDS011;53212;52.112;5.144;2023-05-23T14:25:45;8.00;;;2.80;;
66402;SDS011;53212;52.112;5.144;2023-05-23T14:28:12;12.00;;;3.00;;
66402;SDS011;53212;52.112;5.144;2023-05-23T14:30:37;8.80;;;2.80;;
66402;SDS011;53212;52.112;5.144;2023-05-23T14:33:03;7.20;;;2.60;;
66402;SDS011;53212;52.112;5.144;2023-05-23T14:35:29;5.70;;;2.30;;
66402;SDS011;53212;52.112;5.144;2023-05-23T14:37:54;5.50;;;2.10;;
66402;SDS011;53212;52.112;5.144;2023-05-23T14:40:20;11.20;;;2.60;;
66402;SDS011;53212;52.112;5.144;2023-05-23T14:42:45;6.90;;;2.40;;
66402;SDS011;53212;52.112;5.144;2023-05-23T14:45:11;9.50;;;2.60;;
66402;SDS011;53212;52.112;5.144;2023-05-23T14:47:37;8.60;;;2.50;;
66402;SDS011;53212;52.112;5.144;2023-05-23T14:50:03;6.50;;;2.10;;
66402;SDS011;53212;52.112;5.144;2023-05-23T14:52:30;5.80;;;2.00;;
66402;SDS011;53212;52.112;5.144;2023-05-23T14:54:57;6.60;;;2.40;;
66402;SDS011;53212;52.112;5.144;2023-05-23T14:57:22;7.70;;;2.30;;
66402;SDS011;53212;52.112;5.144;2023-05-23T14:59:48;5.10;;;2.00;;
66402;SDS011;53212;52.112;5.144;2023-05-23T15:02:14;7.60;;;2.00;;
66402;SDS011;53212;52.112;5.144;2023-05-23T15:04:40;6.90;;;2.60;;
66402;SDS011;53212;52.112;5.144;2023-05-23T15:07:05;7.40;;;2.40;;
66402;SDS011;53212;52.112;5.144;2023-05-23T15:09:31;7.40;;;2.40;;
66402;SDS011;53212;52.112;5.144;2023-05-23T15:11:57;9.00;;;2.50;;
66402;SDS011;53212;52.112;5.144;2023-05-23T15:14:22;9.40;;;2.80;;
66402;SDS011;53212;52.112;5.144;2023-05-23T15:16:53;9.50;;;2.20;;
66402;SDS011;53212;52.112;5.144;2023-05-23T15:19:19;11.00;;;1.80;;
66402;SDS011;53212;52.112;5.144;2023-05-23T15:21:44;7.90;;;2.00;;